createdAt,value
2022-12-09T00:01:38.270Z,97769.00
2022-12-09T00:04:06.428Z,97763.47
2022-12-09T00:06:34.438Z,97765.06
2022-12-09T00:09:04.816Z,97752.63
2022-12-09T00:11:32.963Z,97758.59
2022-12-09T00:14:01.164Z,97743.44
2022-12-09T00:16:30.742Z,97743.31
2022-12-09T00:18:59.156Z,97753.41
2022-12-09T00:21:28.652Z,97755.56
2022-12-09T00:23:58.226Z,97746.03
2022-12-09T00:26:28.410Z,97749.09
2022-12-09T00:28:57.664Z,97740.47
2022-12-09T00:31:28.511Z,97740.72
2022-12-09T00:33:58.908Z,97749.00
2022-12-09T00:36:27.715Z,97749.63
2022-12-09T00:38:57.932Z,97740.19
2022-12-09T00:41:28.005Z,97744.34
2022-12-09T00:43:57.282Z,97743.03
2022-12-09T00:46:25.296Z,97736.38
2022-12-09T00:48:53.228Z,97740.44
2022-12-09T00:51:23.186Z,97747.78
2022-12-09T00:53:56.145Z,97748.34
2022-12-09T00:56:25.418Z,97741.66
2022-12-09T00:58:55.010Z,97738.91
2022-12-09T01:01:23.187Z,97741.69
2022-12-09T01:03:51.213Z,97746.56
2022-12-09T01:06:20.705Z,97750.69
2022-12-09T01:08:48.877Z,97749.75
2022-12-09T01:11:19.392Z,97744.28
2022-12-09T01:13:47.522Z,97748.44
2022-12-09T01:16:18.437Z,97745.66
2022-12-09T01:18:46.984Z,97749.94
2022-12-09T01:21:15.039Z,97752.19
2022-12-09T01:23:43.134Z,97752.38
2022-12-09T01:26:11.348Z,97751.13
2022-12-09T01:28:40.923Z,97750.66
2022-12-09T01:31:10.431Z,97752.88
2022-12-09T01:33:42.778Z,97752.72
2022-12-09T01:36:13.481Z,97749.34
2022-12-09T01:38:42.061Z,97739.88
2022-12-09T01:41:10.092Z,97734.25
2022-12-09T01:43:38.842Z,97728.81
2022-12-09T01:46:07.606Z,97740.72
2022-12-09T01:48:40.548Z,97733.91
2022-12-09T01:51:13.005Z,97733.22
2022-12-09T01:53:45.211Z,97732.06
2022-12-09T01:56:21.203Z,97722.94
2022-12-09T01:58:50.312Z,97722.97
2022-12-09T02:01:19.064Z,97713.25
2022-12-09T02:03:51.031Z,97724.78
2022-12-09T02:06:19.691Z,97718.88
2022-12-09T02:08:50.650Z,97707.72
2022-12-09T02:11:29.109Z,97708.63
2022-12-09T02:14:04.578Z,97698.56
2022-12-09T02:16:40.928Z,97699.78
2022-12-09T02:19:22.658Z,97691.25
2022-12-09T02:21:57.374Z,97683.25
2022-12-09T02:24:31.662Z,97686.41
2022-12-09T02:27:07.470Z,97680.75
2022-12-09T02:29:59.046Z,97674.72
2022-12-09T02:32:50.906Z,97680.59
2022-12-09T02:35:24.492Z,97667.44
2022-12-09T02:37:59.163Z,97669.97
2022-12-09T02:40:35.379Z,97666.16
2022-12-09T02:43:06.663Z,97663.31
2022-12-09T02:45:37.081Z,97670.50
2022-12-09T02:48:06.530Z,97658.38
2022-12-09T02:50:40.613Z,97657.13
2022-12-09T02:53:13.593Z,97654.38
2022-12-09T02:55:44.484Z,97654.66
2022-12-09T02:58:13.645Z,97652.72
2022-12-09T03:00:42.718Z,97651.28
2022-12-09T03:03:16.465Z,97637.22
2022-12-09T03:05:52.734Z,97632.31
2022-12-09T03:08:32.527Z,97630.16
2022-12-09T03:11:03.160Z,97636.06
2022-12-09T03:13:41.304Z,97633.34
2022-12-09T03:16:17.906Z,97643.38
2022-12-09T03:18:49.976Z,97630.97
2022-12-09T03:21:23.608Z,97641.63
2022-12-09T03:23:54.256Z,97635.16
2022-12-09T03:26:26.382Z,97633.34
2022-12-09T03:28:56.520Z,97634.16
2022-12-09T03:31:27.888Z,97635.69
2022-12-09T03:34:00.233Z,97631.63
2022-12-09T03:36:35.309Z,97629.97
2022-12-09T03:39:08.182Z,97625.84
2022-12-09T03:41:39.752Z,97632.50
2022-12-09T03:44:13.852Z,97624.22
2022-12-09T03:46:41.853Z,97626.09
2022-12-09T03:49:10.404Z,97621.38
2022-12-09T03:51:46.180Z,97623.16
2022-12-09T03:54:20.875Z,97619.97
2022-12-09T03:56:53.232Z,97631.59
2022-12-09T03:59:23.304Z,97624.44
2022-12-09T04:01:52.647Z,97618.53
2022-12-09T04:04:21.067Z,97619.97
2022-12-09T04:06:53.717Z,97617.91
2022-12-09T04:09:21.767Z,97617.56
2022-12-09T04:11:49.890Z,97616.78
2022-12-09T04:14:17.810Z,97608.69
2022-12-09T04:16:46.337Z,97616.28
2022-12-09T04:19:14.414Z,97606.06
2022-12-09T04:21:42.525Z,97607.38
2022-12-09T04:24:11.876Z,97601.75
2022-12-09T04:26:40.090Z,97612.72
2022-12-09T04:29:08.263Z,97611.63
2022-12-09T04:31:36.099Z,97604.88
2022-12-09T04:34:09.275Z,97592.28
2022-12-09T04:36:38.983Z,97601.03
2022-12-09T04:39:07.570Z,97588.72
2022-12-09T04:41:37.069Z,97586.28
2022-12-09T04:44:05.715Z,97581.41
2022-12-09T04:46:34.129Z,97576.94
2022-12-09T04:49:02.116Z,97575.34
2022-12-09T04:51:37.344Z,97565.91
2022-12-09T04:54:06.955Z,97563.34
2022-12-09T04:56:36.501Z,97560.72
2022-12-09T04:59:05.580Z,97558.69
2022-12-09T05:01:33.945Z,97565.47
2022-12-09T05:04:02.245Z,97554.50
2022-12-09T05:06:30.518Z,97543.38
2022-12-09T05:08:58.848Z,97540.50
2022-12-09T05:11:26.990Z,97539.53
2022-12-09T05:13:56.306Z,97539.03
2022-12-09T05:16:24.866Z,97530.25
2022-12-09T05:18:53.226Z,97539.66
2022-12-09T05:21:22.459Z,97534.50
2022-12-09T05:23:50.564Z,97532.88
2022-12-09T05:26:20.127Z,97526.97
2022-12-09T05:28:48.386Z,97519.84
2022-12-09T05:31:20.111Z,97526.69
2022-12-09T05:33:48.760Z,97532.56
2022-12-09T05:36:20.334Z,97522.69
2022-12-09T05:38:49.228Z,97528.16
2022-12-09T05:41:17.246Z,97520.66
2022-12-09T05:43:45.863Z,97523.34
2022-12-09T05:46:15.006Z,97524.63
2022-12-09T05:48:45.193Z,97529.41
2022-12-09T05:51:16.818Z,97528.44
2022-12-09T05:53:45.584Z,97516.44
2022-12-09T05:56:17.049Z,97515.53
2022-12-09T05:58:45.040Z,97511.69
2022-12-09T06:01:13.716Z,97506.56
2022-12-09T06:03:41.952Z,97517.09
2022-12-09T06:06:13.800Z,97512.72
2022-12-09T06:08:43.655Z,97511.72
2022-12-09T06:11:14.613Z,97515.38
2022-12-09T06:13:43.008Z,97507.44
2022-12-09T06:16:11.477Z,97501.34
2022-12-09T06:18:39.746Z,97503.31
2022-12-09T06:21:09.260Z,97492.16
2022-12-09T06:23:41.347Z,97497.25
2022-12-09T06:26:15.568Z,97500.13
2022-12-09T06:28:43.564Z,97495.69
2022-12-09T06:31:11.859Z,97503.94
2022-12-09T06:33:57.556Z,97492.16
2022-12-09T06:36:27.995Z,97495.03
2022-12-09T06:39:01.788Z,97492.34
2022-12-09T06:41:33.980Z,97499.94
2022-12-09T06:44:02.156Z,97506.75
2022-12-09T06:46:30.523Z,97505.19
2022-12-09T06:48:58.545Z,97506.94
2022-12-09T06:51:27.449Z,97495.78
2022-12-09T06:53:57.282Z,97501.53
2022-12-09T06:56:25.496Z,97509.63
2022-12-09T06:58:53.568Z,97509.63
2022-12-09T07:01:24.852Z,97501.69
2022-12-09T07:03:55.586Z,97500.75
2022-12-09T07:06:28.798Z,97515.50
2022-12-09T07:09:00.207Z,97501.44
2022-12-09T07:11:29.281Z,97514.47
2022-12-09T07:13:57.589Z,97507.72
2022-12-09T07:16:26.675Z,97513.25
2022-12-09T07:18:55.466Z,97501.41
2022-12-09T07:21:25.610Z,97513.28
2022-12-09T07:23:54.009Z,97514.41
2022-12-09T07:26:23.546Z,97514.09
2022-12-09T07:28:51.492Z,97504.72
2022-12-09T07:31:21.413Z,97501.88
2022-12-09T07:33:49.964Z,97492.16
2022-12-09T07:36:21.223Z,97489.28
2022-12-09T07:38:49.677Z,97493.09
2022-12-09T07:41:19.299Z,97497.81
2022-12-09T07:43:49.725Z,97492.44
2022-12-09T07:46:20.161Z,97489.94
2022-12-09T07:48:49.320Z,97487.78
2022-12-09T07:51:18.511Z,97487.75
2022-12-09T07:53:47.058Z,97494.50
2022-12-09T07:56:16.958Z,97493.94
2022-12-09T07:58:47.999Z,97499.47
2022-12-09T08:01:19.647Z,97492.00
2022-12-09T08:03:48.521Z,97490.31
2022-12-09T08:06:19.593Z,97500.13
2022-12-09T08:08:48.489Z,97492.38
2022-12-09T08:11:18.763Z,97484.38
2022-12-09T08:13:46.992Z,97490.00
2022-12-09T08:16:18.651Z,97485.41
2022-12-09T08:18:47.380Z,97485.66
2022-12-09T08:21:17.714Z,97477.34
2022-12-09T08:23:46.477Z,97486.31
2022-12-09T08:26:15.617Z,97480.28
2022-12-09T08:28:44.474Z,97477.25
2022-12-09T08:31:14.581Z,97466.81
2022-12-09T08:33:44.881Z,97470.72
2022-12-09T08:36:14.523Z,97476.00
2022-12-09T08:38:43.415Z,97467.13
2022-12-09T08:41:13.300Z,97462.38
2022-12-09T08:43:42.293Z,97460.91
2022-12-09T08:46:11.217Z,97465.81
2022-12-09T08:48:40.780Z,97464.25
2022-12-09T08:51:12.227Z,97465.38
2022-12-09T08:53:40.752Z,97455.81
2022-12-09T08:56:10.962Z,97449.69
2022-12-09T08:58:38.904Z,97451.28
2022-12-09T09:01:07.367Z,97456.81
2022-12-09T09:03:35.861Z,97457.38
2022-12-09T09:06:10.399Z,97458.88
2022-12-09T09:08:41.300Z,97456.91
2022-12-09T09:11:13.497Z,97447.44
2022-12-09T09:13:43.518Z,97448.94
2022-12-09T09:16:13.247Z,97446.03
2022-12-09T09:18:41.409Z,97451.75
2022-12-09T09:21:11.100Z,97443.31
2022-12-09T09:23:41.436Z,97447.84
2022-12-09T09:26:12.401Z,97442.59
2022-12-09T09:28:41.210Z,97441.47
2022-12-09T09:31:11.683Z,97441.63
2022-12-09T09:33:39.880Z,97438.97
2022-12-09T09:36:11.349Z,97443.41
2022-12-09T09:38:41.150Z,97446.97
2022-12-09T09:41:21.798Z,97443.22
2022-12-09T09:43:50.529Z,97438.09
2022-12-09T09:46:24.268Z,97451.88
2022-12-09T09:48:53.857Z,97443.56
2022-12-09T09:51:22.804Z,97437.31
2022-12-09T09:53:53.432Z,97440.38
2022-12-09T09:56:28.405Z,97414.69
2022-12-09T09:59:06.591Z,97416.75
2022-12-09T10:01:37.594Z,97413.19
2022-12-09T10:04:19.605Z,97404.59
2022-12-09T10:06:53.249Z,97416.06
2022-12-09T10:09:26.604Z,97404.38
2022-12-09T10:12:02.627Z,97404.41
2022-12-09T10:14:44.571Z,97395.50
2022-12-09T10:17:24.150Z,97392.63
2022-12-09T10:19:56.065Z,97391.25
2022-12-09T10:22:28.062Z,97396.72
2022-12-09T10:24:59.981Z,97395.22
2022-12-09T10:27:32.295Z,97390.31
2022-12-09T10:30:03.613Z,97392.28
2022-12-09T10:32:33.937Z,97393.72
2022-12-09T10:35:03.712Z,97398.75
2022-12-09T10:37:34.031Z,97392.69
2022-12-09T10:40:16.773Z,97392.75
2022-12-09T10:43:04.934Z,97389.69
2022-12-09T10:46:00.175Z,97380.03
2022-12-09T10:48:33.006Z,97377.78
2022-12-09T10:51:07.056Z,97376.91
2022-12-09T10:53:36.881Z,97374.50
2022-12-09T10:56:07.873Z,97384.28
2022-12-09T10:58:38.039Z,97368.84
2022-12-09T11:01:10.454Z,97373.66
2022-12-09T11:03:43.267Z,97368.47
2022-12-09T11:06:23.230Z,97362.53
2022-12-09T11:08:54.928Z,97365.03
2022-12-09T11:11:41.366Z,97364.59
2022-12-09T11:14:23.097Z,97367.19
2022-12-09T11:16:58.319Z,97366.53
2022-12-09T11:19:31.700Z,97361.88
2022-12-09T11:22:38.526Z,97359.41
2022-12-09T11:25:20.184Z,97357.56
2022-12-09T11:27:53.146Z,97350.28
2022-12-09T11:30:24.863Z,97346.66
2022-12-09T11:32:57.780Z,97351.16
2022-12-09T11:35:31.334Z,97353.31
2022-12-09T11:38:03.639Z,97353.88
2022-12-09T11:40:33.464Z,97346.06
2022-12-09T11:43:03.658Z,97343.81
2022-12-09T11:45:34.706Z,97341.03
2022-12-09T11:48:27.728Z,97331.25
2022-12-09T11:50:55.958Z,97325.56
2022-12-09T11:53:28.351Z,97333.13
2022-12-09T11:56:04.009Z,97321.22
2022-12-09T11:58:42.633Z,97328.91
2022-12-09T12:01:15.284Z,97336.38
2022-12-09T12:03:48.297Z,97321.50
2022-12-09T12:06:22.467Z,97319.84
2022-12-09T12:08:54.194Z,97311.81
2022-12-09T12:11:28.777Z,97313.22
2022-12-09T12:14:02.115Z,97315.31
2022-12-09T12:16:39.232Z,97311.66
2022-12-09T12:19:15.077Z,97316.69
2022-12-09T12:21:57.765Z,97312.81
2022-12-09T12:24:55.690Z,97320.91
2022-12-09T12:27:41.921Z,97307.84
2022-12-09T12:30:14.002Z,97304.84
2022-12-09T12:33:40.849Z,97296.31
2022-12-09T12:35:56.267Z,97314.84
2022-12-09T12:38:37.027Z,97315.91
2022-12-09T12:41:12.858Z,97322.78
2022-12-09T12:44:15.534Z,97312.66
2022-12-09T12:46:57.385Z,97312.16
2022-12-09T12:49:41.461Z,97305.44
2022-12-09T12:52:53.809Z,97315.22
2022-12-09T12:55:20.096Z,97304.50
2022-12-09T12:57:58.792Z,97309.56
2022-12-09T13:00:34.055Z,97306.22
2022-12-09T13:03:23.095Z,97310.34
2022-12-09T13:05:53.759Z,97315.00
2022-12-09T13:08:29.194Z,97321.97
2022-12-09T13:11:00.661Z,97323.56
2022-12-09T13:13:34.322Z,97317.56
2022-12-09T13:16:10.505Z,97321.88
2022-12-09T13:18:40.876Z,97311.66
2022-12-09T13:21:10.688Z,97315.91
2022-12-09T13:23:58.372Z,97306.75
2022-12-09T13:26:38.495Z,97313.59
2022-12-09T13:29:14.164Z,97310.72
2022-12-09T13:31:51.988Z,97314.25
2022-12-09T13:34:29.044Z,97316.78
2022-12-09T13:36:56.864Z,97317.66
2022-12-09T13:39:56.569Z,97317.09
2022-12-09T13:42:53.235Z,97317.16
2022-12-09T13:45:27.873Z,97317.06
2022-12-09T13:47:56.717Z,97319.28
2022-12-09T13:50:31.260Z,97320.50
2022-12-09T13:53:01.098Z,97317.31
2022-12-09T13:55:37.549Z,97313.97
2022-12-09T13:58:47.760Z,97322.78
2022-12-09T14:01:23.297Z,97322.66
2022-12-09T14:04:01.885Z,97321.41
2022-12-09T14:06:36.760Z,97327.31
2022-12-09T14:09:18.479Z,97316.50
2022-12-09T14:11:49.118Z,97314.16
2022-12-09T14:14:53.550Z,97318.38
2022-12-09T14:18:00.898Z,97327.69
2022-12-09T14:20:34.698Z,97327.25
2022-12-09T14:23:19.358Z,97315.00
2022-12-09T14:26:04.550Z,97315.53
2022-12-09T14:28:55.032Z,97320.91
2022-12-09T14:31:50.254Z,97328.47
2022-12-09T14:34:23.085Z,97324.88
2022-12-09T14:36:55.241Z,97326.97
2022-12-09T14:39:30.474Z,97330.91
2022-12-09T14:42:02.469Z,97333.19
2022-12-09T14:44:37.470Z,97336.28
2022-12-09T14:47:18.091Z,97343.44
2022-12-09T14:49:49.391Z,97343.16
2022-12-09T14:52:24.024Z,97351.56
2022-12-09T14:54:54.797Z,97355.47
2022-12-09T14:57:25.495Z,97358.78
2022-12-09T14:59:56.407Z,97358.34
2022-12-09T15:02:26.196Z,97351.91
2022-12-09T15:04:55.252Z,97369.88
2022-12-09T15:07:25.869Z,97365.06
2022-12-09T15:09:58.043Z,97366.63
2022-12-09T15:12:30.960Z,97384.00
2022-12-09T15:15:04.304Z,97382.81
2022-12-09T15:17:37.150Z,97369.91
2022-12-09T15:20:07.721Z,97368.31
2022-12-09T15:22:35.591Z,97372.84
2022-12-09T15:25:05.308Z,97374.97
2022-12-09T15:27:33.248Z,97377.06
2022-12-09T15:30:01.374Z,97379.25
2022-12-09T15:32:31.345Z,97388.41
2022-12-09T15:35:17.383Z,97386.75
2022-12-09T15:37:46.038Z,97384.53
2022-12-09T15:40:20.015Z,97379.81
2022-12-09T15:42:53.216Z,97382.09
2022-12-09T15:45:23.762Z,97369.38
2022-12-09T15:47:55.887Z,97376.63
2022-12-09T15:50:27.788Z,97382.16
2022-12-09T15:52:58.176Z,97379.88
2022-12-09T15:55:32.244Z,97384.47
2022-12-09T15:58:03.436Z,97372.59
2022-12-09T16:00:31.313Z,97383.84
2022-12-09T16:02:59.577Z,97376.88
2022-12-09T16:05:27.451Z,97386.84
2022-12-09T16:07:57.835Z,97383.03
2022-12-09T16:10:28.258Z,97390.09
2022-12-09T16:13:07.620Z,97387.63
2022-12-09T16:15:45.032Z,97405.31
2022-12-09T16:18:18.332Z,97397.03
2022-12-09T16:20:58.873Z,97401.19
2022-12-09T16:23:28.395Z,97399.75
2022-12-09T16:26:06.743Z,97399.16
2022-12-09T16:28:35.798Z,97398.75
2022-12-09T16:31:17.757Z,97407.03
2022-12-09T16:33:49.202Z,97402.78
2022-12-09T16:36:20.736Z,97387.13
2022-12-09T16:39:27.839Z,97401.00
2022-12-09T16:42:01.636Z,97405.16
2022-12-09T16:44:32.276Z,97403.34
2022-12-09T16:47:10.340Z,97395.09
2022-12-09T16:49:38.564Z,97400.63
2022-12-09T16:52:06.542Z,97390.38
2022-12-09T16:54:34.609Z,97389.25
2022-12-09T16:57:03.683Z,97394.88
2022-12-09T16:59:37.547Z,97407.81
2022-12-09T17:02:15.937Z,97417.53
2022-12-09T17:04:43.872Z,97419.09
2022-12-09T17:07:11.881Z,97410.84
2022-12-09T17:09:39.738Z,97414.84
2022-12-09T17:12:09.173Z,97412.09
2022-12-09T17:14:36.965Z,97412.28
2022-12-09T17:17:04.942Z,97414.69
2022-12-09T17:19:33.666Z,97415.31
2022-12-09T17:22:01.455Z,97420.78
2022-12-09T17:24:31.247Z,97411.75
2022-12-09T17:26:59.013Z,97414.41
2022-12-09T17:29:28.192Z,97427.63
2022-12-09T17:31:56.700Z,97422.59
2022-12-09T17:34:24.589Z,97418.38
2022-12-09T17:36:52.416Z,97428.78
2022-12-09T17:39:20.308Z,97425.28
2022-12-09T17:41:50.019Z,97416.88
2022-12-09T17:44:17.854Z,97423.41
2022-12-09T17:46:46.947Z,97422.56
2022-12-09T17:49:14.916Z,97430.84
2022-12-09T17:51:42.727Z,97421.09
2022-12-09T17:54:10.507Z,97422.75
2022-12-09T17:56:38.413Z,97417.81
2022-12-09T17:59:08.373Z,97418.75
2022-12-09T18:01:37.445Z,97421.09
2022-12-09T18:04:10.120Z,97423.41
2022-12-09T18:06:39.563Z,97434.47
2022-12-09T18:09:10.501Z,97430.56
2022-12-09T18:11:39.486Z,97430.34
2022-12-09T18:14:08.033Z,97431.88
2022-12-09T18:16:35.916Z,97432.53
2022-12-09T18:19:06.555Z,97435.69
2022-12-09T18:21:35.096Z,97434.88
2022-12-09T18:24:02.978Z,97442.88
2022-12-09T18:26:35.264Z,97447.53
2022-12-09T18:29:06.124Z,97451.22
2022-12-09T18:31:34.256Z,97453.94
2022-12-09T18:34:01.946Z,97454.97
2022-12-09T18:36:31.015Z,97444.38
2022-12-09T18:38:59.669Z,97456.66
2022-12-09T18:41:29.605Z,97460.09
2022-12-09T18:43:58.944Z,97463.25
2022-12-09T18:46:28.776Z,97468.16
2022-12-09T18:48:58.130Z,97471.09
2022-12-09T18:51:34.432Z,97466.34
2022-12-09T18:54:07.380Z,97466.56
2022-12-09T18:56:36.647Z,97475.03
2022-12-09T18:59:06.890Z,97461.56
2022-12-09T19:01:39.058Z,97466.88
2022-12-09T19:04:08.969Z,97460.69
2022-12-09T19:06:38.728Z,97462.94
2022-12-09T19:09:09.537Z,97460.09
2022-12-09T19:11:39.352Z,97460.25
2022-12-09T19:14:09.384Z,97462.13
2022-12-09T19:16:38.314Z,97456.72
2022-12-09T19:19:10.032Z,97458.13
2022-12-09T19:21:38.742Z,97455.28
2022-12-09T19:24:14.632Z,97458.50
2022-12-09T19:26:43.724Z,97457.91
2022-12-09T19:29:13.299Z,97457.06
2022-12-09T19:31:44.150Z,97456.41
2022-12-09T19:34:14.963Z,97465.50
2022-12-09T19:36:46.357Z,97457.75
2022-12-09T19:39:18.048Z,97463.75
2022-12-09T19:41:46.918Z,97463.94
2022-12-09T19:44:31.069Z,97466.78
2022-12-09T19:47:05.174Z,97476.13
2022-12-09T19:49:32.974Z,97472.50
2022-12-09T19:52:00.738Z,97485.00
2022-12-09T19:54:29.963Z,97486.16
2022-12-09T19:56:58.402Z,97487.31
2022-12-09T19:59:27.465Z,97492.81
2022-12-09T20:01:55.904Z,97487.97
2022-12-09T20:07:16.757Z,97504.44
2022-12-09T20:09:45.868Z,97512.47
2022-12-09T20:12:13.640Z,97502.59
2022-12-09T20:14:42.036Z,97510.63
2022-12-09T20:17:09.869Z,97508.81
2022-12-09T20:19:37.642Z,97505.09
2022-12-09T20:22:05.443Z,97510.19
2022-12-09T20:24:33.245Z,97504.50
2022-12-09T20:27:02.388Z,97506.44
2022-12-09T20:29:36.972Z,97512.78
2022-12-09T20:32:05.598Z,97514.94
2022-12-09T20:34:33.391Z,97505.88
2022-12-09T20:37:01.280Z,97498.50
2022-12-09T20:39:29.014Z,97504.28
2022-12-09T20:42:01.535Z,97507.13
2022-12-09T20:44:32.274Z,97508.84
2022-12-09T20:47:00.035Z,97508.59
2022-12-09T20:49:27.864Z,97508.44
2022-12-09T20:51:58.289Z,97511.44
2022-12-09T20:54:26.162Z,97506.34
2022-12-09T20:56:54.581Z,97507.91
2022-12-09T20:59:22.371Z,97502.00
2022-12-09T21:01:51.494Z,97509.28
2022-12-09T21:04:19.283Z,97517.75
2022-12-09T21:06:47.525Z,97522.97
2022-12-09T21:09:19.957Z,97515.97
2022-12-09T21:11:48.416Z,97519.63
2022-12-09T21:14:18.203Z,97526.78
2022-12-09T21:16:50.158Z,97524.31
2022-12-09T21:19:24.357Z,97525.38
2022-12-09T21:21:52.706Z,97528.44
2022-12-09T21:24:21.802Z,97515.63
2022-12-09T21:26:53.002Z,97513.34
2022-12-09T21:29:22.306Z,97513.81
2022-12-09T21:31:54.261Z,97517.41
2022-12-09T21:34:25.201Z,97515.69
2022-12-09T21:36:52.963Z,97522.94
2022-12-09T21:39:20.999Z,97520.22
2022-12-09T21:41:48.733Z,97517.19
2022-12-09T21:44:18.695Z,97521.47
2022-12-09T21:46:46.791Z,97531.38
2022-12-09T21:49:15.151Z,97521.50
2022-12-09T21:51:44.508Z,97532.94
2022-12-09T21:54:12.348Z,97528.03
2022-12-09T21:56:40.104Z,97532.25
2022-12-09T21:59:08.661Z,97531.16
2022-12-09T22:01:38.810Z,97540.44
2022-12-09T22:04:09.119Z,97533.59
2022-12-09T22:06:37.467Z,97531.50
2022-12-09T22:09:08.206Z,97532.41
2022-12-09T22:11:37.914Z,97532.13
2022-12-09T22:14:07.623Z,97538.50
2022-12-09T22:16:37.342Z,97547.94
2022-12-09T22:19:08.102Z,97547.38
2022-12-09T22:21:36.897Z,97542.38
2022-12-09T22:24:09.312Z,97541.25
2022-12-09T22:26:37.101Z,97536.78
2022-12-09T22:29:06.850Z,97538.38
2022-12-09T22:31:37.359Z,97550.88
2022-12-09T22:34:07.903Z,97554.38
2022-12-09T22:36:37.063Z,97550.53
2022-12-09T22:39:07.719Z,97561.63
2022-12-09T22:41:35.991Z,97552.09
2022-12-09T22:44:04.921Z,97555.50
2022-12-09T22:46:34.809Z,97564.94
2022-12-09T22:49:04.595Z,97560.63
2022-12-09T22:51:34.881Z,97562.53
2022-12-09T22:54:04.962Z,97555.06
2022-12-09T22:56:34.187Z,97564.13
2022-12-09T22:59:02.076Z,97564.78
2022-12-09T23:01:32.640Z,97562.22
2022-12-09T23:04:01.364Z,97550.44
2022-12-09T23:06:30.813Z,97554.25
2022-12-09T23:08:59.019Z,97550.88
2022-12-09T23:11:29.170Z,97541.91
2022-12-09T23:13:59.556Z,97549.94
2022-12-09T23:16:28.124Z,97548.25
2022-12-09T23:18:57.659Z,97552.66
2022-12-09T23:21:27.319Z,97551.44
2022-12-09T23:23:56.824Z,97558.69
2022-12-09T23:26:26.665Z,97561.28
2022-12-09T23:28:57.109Z,97555.97
2022-12-09T23:31:29.169Z,97566.25
2022-12-09T23:37:32.176Z,97559.72
2022-12-09T23:39:59.856Z,97560.06
2022-12-09T23:42:27.615Z,97565.34
2022-12-09T23:44:55.366Z,97554.63
2022-12-09T23:47:24.449Z,97556.25
2022-12-09T23:49:52.279Z,97550.50
2022-12-09T23:52:19.941Z,97552.53
2022-12-09T23:54:47.701Z,97550.06
2022-12-09T23:57:15.471Z,97553.81
2022-12-09T23:59:43.219Z,97554.06
